Time;durP1;ratioP1;P1;durP2;ratioP2;P2;SDS_P1;SDS_P2;PMS_P1;PMS_P2;Temp;Humidity;BMP_temperature;BMP_pressure;BME280_temperature;BME280_humidity;BME280_pressure;Samples;Min_cycle;Max_cycle;Signal;HPM_P1;HPM_P2
2023/01/15 00:01:33;;;;;;;68.10;48.65;;;14.80;72.40;;;;;;4904741;28;98060;-56
2023/01/15 00:04:00;;;;;;;66.75;48.17;;;14.80;72.30;;;;;;4914017;28;96702;-58
2023/01/15 00:06:27;;;;;;;68.30;48.53;;;14.80;72.40;;;;;;4921121;28;97580;-56
2023/01/15 00:08:53;;;;;;;68.45;48.25;;;14.80;72.30;;;;;;4926019;28;95387;-56
2023/01/15 00:11:19;;;;;;;66.45;48.15;;;14.80;72.40;;;;;;4916467;28;97054;-58
2023/01/15 00:13:45;;;;;;;68.43;48.05;;;14.80;72.30;;;;;;4911479;28;97555;-58
2023/01/15 00:16:19;;;;;;;66.32;48.13;;;14.80;72.40;;;;;;4926356;28;95583;-57
2023/01/15 00:18:56;;;;;;;67.57;48.45;;;14.80;72.40;;;;;;4926117;28;94431;-52
2023/01/15 00:21:23;;;;;;;66.53;48.08;;;14.80;72.40;;;;;;4911866;28;96474;-58
2023/01/15 00:29:19;;;;;;;68.05;48.20;;;14.80;72.50;;;;;;4911801;28;98842;-58
2023/01/15 00:31:55;;;;;;;68.45;48.28;;;14.80;72.40;;;;;;4921139;28;96159;-56
2023/01/15 00:34:21;;;;;;;67.78;48.45;;;14.80;72.50;;;;;;4925115;28;95031;-54
2023/01/15 00:36:47;;;;;;;67.80;48.40;;;14.80;72.40;;;;;;4937231;28;95166;-56
2023/01/15 00:39:13;;;;;;;67.50;48.15;;;14.80;72.30;;;;;;4920811;28;101831;-57
2023/01/15 00:41:39;;;;;;;66.30;48.25;;;14.80;72.30;;;;;;4918707;28;94766;-55
2023/01/15 00:44:04;;;;;;;66.05;48.08;;;14.80;72.50;;;;;;4923186;28;96281;-57
2023/01/15 00:46:30;;;;;;;67.85;48.22;;;14.80;72.50;;;;;;4920955;28;97748;-56
2023/01/15 00:48:55;;;;;;;67.47;48.15;;;14.80;72.40;;;;;;4920080;28;100538;-57
2023/01/15 00:51:21;;;;;;;68.28;48.13;;;14.80;72.50;;;;;;4929739;28;96978;-56
2023/01/15 00:53:47;;;;;;;67.07;47.80;;;14.70;72.20;;;;;;4917110;28;97279;-57
2023/01/15 00:56:12;;;;;;;66.13;48.08;;;14.80;72.40;;;;;;4928135;28;101091;-57
2023/01/15 00:58:38;;;;;;;67.07;47.72;;;14.70;72.40;;;;;;4906268;28;96639;-57
2023/01/15 01:01:04;;;;;;;69.32;48.35;;;14.70;72.40;;;;;;4938053;28;96697;-58
2023/01/15 01:03:29;;;;;;;66.95;48.13;;;14.70;72.40;;;;;;4929815;28;96577;-56
2023/01/15 01:06:00;;;;;;;67.88;48.33;;;14.70;72.40;;;;;;4921512;28;95797;-58
2023/01/15 01:08:26;;;;;;;67.68;48.30;;;14.70;72.30;;;;;;4923719;28;95209;-57
2023/01/15 01:11:10;;;;;;;65.90;48.05;;;14.70;72.40;;;;;;4929495;28;95592;-58
2023/01/15 01:13:37;;;;;;;67.13;48.08;;;14.70;72.40;;;;;;4925435;28;99599;-58
2023/01/15 01:16:03;;;;;;;66.47;48.15;;;14.70;72.40;;;;;;4913549;28;96164;-57
2023/01/15 01:18:29;;;;;;;65.75;47.83;;;14.70;72.40;;;;;;4925935;28;95443;-57
2023/01/15 01:20:55;;;;;;;67.15;48.15;;;14.70;72.40;;;;;;4928067;28;95017;-56
2023/01/15 01:23:23;;;;;;;66.15;48.13;;;14.70;72.50;;;;;;4931383;28;95519;-57
2023/01/15 01:25:49;;;;;;;67.30;48.35;;;14.70;72.40;;;;;;4916358;28;95653;-58
2023/01/15 01:28:14;;;;;;;67.70;48.13;;;14.70;72.40;;;;;;4919673;28;96439;-58
2023/01/15 01:30:40;;;;;;;68.18;48.22;;;14.70;72.40;;;;;;4920526;28;96108;-57
2023/01/15 01:33:06;;;;;;;67.50;48.05;;;14.70;72.40;;;;;;4935775;28;94734;-58
2023/01/15 01:35:32;;;;;;;65.95;48.22;;;14.70;72.40;;;;;;4919075;28;97987;-57
2023/01/15 01:37:58;;;;;;;66.55;48.22;;;14.70;72.40;;;;;;4915535;28;97151;-58
2023/01/15 01:40:23;;;;;;;66.13;48.20;;;14.70;72.40;;;;;;4920756;28;97898;-56
2023/01/15 01:42:49;;;;;;;68.20;48.17;;;14.70;72.50;;;;;;4917291;28;97680;-57
2023/01/15 01:45:24;;;;;;;66.75;48.15;;;14.70;72.40;;;;;;4916178;28;95725;-56
2023/01/15 01:47:53;;;;;;;67.82;48.15;;;14.70;72.50;;;;;;4926317;28;96397;-52
2023/01/15 01:50:20;;;;;;;65.63;47.83;;;14.70;72.40;;;;;;4929845;28;95459;-58
2023/01/15 01:52:52;;;;;;;66.53;48.00;;;14.70;72.40;;;;;;4928869;28;95605;-57
2023/01/15 01:55:20;;;;;;;66.80;48.10;;;14.70;73.10;;;;;;4920351;28;95155;-56
2023/01/15 01:57:49;;;;;;;66.38;47.90;;;14.60;72.40;;;;;;4931280;28;99626;-58
2023/01/15 02:00:15;;;;;;;67.07;48.00;;;14.60;72.50;;;;;;4912624;28;95908;-56
2023/01/15 02:02:45;;;;;;;66.57;47.85;;;14.70;72.50;;;;;;4913793;28;97459;-56
2023/01/15 02:05:19;;;;;;;66.00;48.05;;;14.60;72.40;;;;;;4922319;28;96533;-57
2023/01/15 02:07:44;;;;;;;66.65;47.97;;;14.60;72.40;;;;;;4918269;28;96458;-56
2023/01/15 02:10:15;;;;;;;66.55;48.33;;;14.60;72.50;;;;;;4932638;28;94745;-59
2023/01/15 02:12:44;;;;;;;67.72;48.58;;;14.60;72.40;;;;;;4918071;28;96096;-56
2023/01/15 02:15:17;;;;;;;65.70;47.97;;;14.60;72.40;;;;;;4918320;28;97066;-56
2023/01/15 02:17:52;;;;;;;65.13;48.03;;;14.60;72.30;;;;;;4913552;28;95081;-57
2023/01/15 02:20:27;;;;;;;65.35;47.95;;;14.60;72.40;;;;;;4927433;28;95606;-58
2023/01/15 02:23:08;;;;;;;66.10;48.08;;;14.60;72.40;;;;;;4923911;28;95444;-58
2023/01/15 02:25:42;;;;;;;66.03;48.23;;;14.60;72.20;;;;;;4917234;28;95177;-58
2023/01/15 02:28:17;;;;;;;65.80;47.80;;;14.60;72.40;;;;;;4927188;28;95168;-58
2023/01/15 02:30:51;;;;;;;67.45;47.95;;;14.60;72.40;;;;;;4920861;28;96417;-58
2023/01/15 02:33:31;;;;;;;66.35;47.83;;;14.60;72.20;;;;;;4916617;28;102303;-58
2023/01/15 02:35:59;;;;;;;66.97;48.22;;;14.60;72.40;;;;;;4920087;28;95893;-56
2023/01/15 02:38:31;;;;;;;66.30;48.15;;;14.60;72.40;;;;;;4924372;28;95783;-57
2023/01/15 02:41:01;;;;;;;65.55;47.80;;;14.60;72.50;;;;;;4914886;28;99095;-57
2023/01/15 02:43:31;;;;;;;67.00;47.97;;;14.50;72.30;;;;;;4915771;28;95025;-57
2023/01/15 02:46:00;;;;;;;66.53;48.30;;;14.60;72.30;;;;;;4916530;28;96357;-57
2023/01/15 02:48:29;;;;;;;66.80;48.03;;;14.50;72.20;;;;;;4924942;28;94177;-58
2023/01/15 02:51:01;;;;;;;65.40;47.72;;;14.50;72.20;;;;;;4919403;28;98009;-57
2023/01/15 02:53:30;;;;;;;65.88;47.95;;;14.60;72.40;;;;;;4929223;28;95969;-56
2023/01/15 02:56:02;;;;;;;65.15;47.92;;;14.50;72.30;;;;;;4917659;28;98600;-58
2023/01/15 02:58:31;;;;;;;65.72;47.85;;;14.50;72.20;;;;;;4922097;28;95361;-58
2023/01/15 03:01:01;;;;;;;65.32;47.90;;;14.50;72.20;;;;;;4921532;28;95935;-56
2023/01/15 03:03:50;;;;;;;66.35;47.65;;;14.50;72.40;;;;;;4922610;28;95366;-58
2023/01/15 03:06:31;;;;;;;66.25;48.10;;;14.50;72.30;;;;;;4917536;28;98356;-57
2023/01/15 03:08:57;;;;;;;64.68;47.58;;;14.50;72.30;;;;;;4916574;28;94725;-58
2023/01/15 03:11:23;;;;;;;66.85;48.05;;;14.50;72.40;;;;;;4920915;28;95536;-57
2023/01/15 03:14:15;;;;;;;68.35;48.08;;;14.50;72.30;;;;;;4928423;28;97191;-53
2023/01/15 03:16:52;;;;;;;66.55;48.05;;;14.50;72.40;;;;;;4931330;28;95482;-56
2023/01/15 03:19:32;;;;;;;67.10;48.10;;;14.50;72.40;;;;;;4928559;28;97500;-57
2023/01/15 03:22:15;;;;;;;67.10;47.95;;;14.50;72.30;;;;;;4916390;28;96115;-57
2023/01/15 03:24:49;;;;;;;65.85;47.83;;;14.50;72.40;;;;;;4927743;28;95453;-57
2023/01/15 03:27:15;;;;;;;66.65;47.83;;;14.50;72.30;;;;;;4916807;28;95367;-58
2023/01/15 03:30:03;;;;;;;65.80;47.85;;;14.50;72.30;;;;;;4922735;28;97098;-58
2023/01/15 03:32:30;;;;;;;65.93;47.70;;;14.50;72.30;;;;;;4919807;28;95511;-57
2023/01/15 03:34:57;;;;;;;65.40;47.97;;;14.50;72.40;;;;;;4925717;28;95495;-57
2023/01/15 03:37:26;;;;;;;65.50;47.72;;;14.50;72.50;;;;;;4921951;28;95349;-56
2023/01/15 03:39:53;;;;;;;65.32;47.78;;;14.40;72.30;;;;;;4916056;28;94408;-58
2023/01/15 03:42:26;;;;;;;64.70;47.63;;;14.50;72.30;;;;;;4921979;28;95584;-53
2023/01/15 03:44:52;;;;;;;65.40;47.95;;;14.40;72.20;;;;;;4923037;28;95510;-54
2023/01/15 03:47:33;;;;;;;63.92;47.40;;;14.40;72.20;;;;;;4917096;28;99035;-56
2023/01/15 03:50:08;;;;;;;65.50;47.72;;;14.40;72.30;;;;;;4925432;28;94717;-57
2023/01/15 03:52:53;;;;;;;64.82;47.65;;;14.40;72.30;;;;;;4914382;28;101828;-58
2023/01/15 03:55:37;;;;;;;65.43;47.72;;;14.40;72.30;;;;;;4919587;28;96346;-57
2023/01/15 03:58:17;;;;;;;65.10;47.92;;;14.40;72.30;;;;;;4922510;28;94989;-56
2023/01/15 04:00:51;;;;;;;65.03;47.80;;;14.40;72.30;;;;;;4919479;28;95281;-55
2023/01/15 04:03:21;;;;;;;65.28;47.75;;;14.40;72.30;;;;;;4922616;28;95465;-58
2023/01/15 04:05:49;;;;;;;66.88;47.97;;;14.40;72.30;;;;;;4913650;28;96339;-57
2023/01/15 04:08:15;;;;;;;65.30;47.75;;;14.40;72.20;;;;;;4916768;28;97407;-58
2023/01/15 04:10:55;;;;;;;65.10;47.42;;;14.40;72.30;;;;;;4928802;28;95385;-57
2023/01/15 04:13:22;;;;;;;65.90;47.65;;;14.40;72.40;;;;;;4927245;28;98954;-58
2023/01/15 04:15:48;;;;;;;66.20;47.92;;;14.40;72.30;;;;;;4915331;28;98835;-56
2023/01/15 04:18:14;;;;;;;67.95;47.58;;;14.40;72.10;;;;;;4916141;28;95267;-58
2023/01/15 04:20:39;;;;;;;66.80;47.83;;;14.40;72.20;;;;;;4932347;28;95527;-55
2023/01/15 04:23:05;;;;;;;65.05;47.63;;;14.30;72.10;;;;;;4929435;28;95353;-56
2023/01/15 04:25:31;;;;;;;64.35;47.58;;;14.30;72.10;;;;;;4919212;28;97524;-57
2023/01/15 04:27:56;;;;;;;65.68;47.97;;;14.30;72.20;;;;;;4930170;28;95335;-58
2023/01/15 04:30:22;;;;;;;66.38;47.83;;;14.40;72.10;;;;;;4931836;28;94793;-58
2023/01/15 04:32:48;;;;;;;66.25;47.70;;;14.30;71.90;;;;;;4918224;28;96028;-58
2023/01/15 04:35:15;;;;;;;65.25;47.75;;;14.30;72.10;;;;;;4918928;28;96766;-57
2023/01/15 04:37:40;;;;;;;65.43;47.53;;;14.30;72.10;;;;;;4928413;28;96089;-57
2023/01/15 04:40:07;;;;;;;65.88;47.97;;;14.30;72.10;;;;;;4931675;28;95589;-57
2023/01/15 04:45:17;;;;;;;65.20;47.90;;;14.30;72.20;;;;;;4920076;28;96730;-57
2023/01/15 04:47:42;;;;;;;64.40;47.70;;;14.30;72.10;;;;;;4933552;28;95508;-58
2023/01/15 04:50:09;;;;;;;65.32;47.75;;;14.30;72.20;;;;;;4928079;28;94948;-55
2023/01/15 04:52:35;;;;;;;65.03;47.58;;;14.30;72.60;;;;;;4924368;28;97849;-56
2023/01/15 04:55:01;;;;;;;64.38;47.33;;;14.30;72.10;;;;;;4923666;28;96268;-58
2023/01/15 04:57:27;;;;;;;65.13;47.58;;;14.30;72.20;;;;;;4924928;28;95119;-51
2023/01/15 04:59:52;;;;;;;64.90;47.47;;;14.30;72.00;;;;;;4925758;28;95961;-58
2023/01/15 05:02:18;;;;;;;64.85;47.72;;;14.30;72.20;;;;;;4915959;28;98221;-57
2023/01/15 05:04:44;;;;;;;65.38;47.63;;;14.30;72.20;;;;;;4922860;28;96811;-58
2023/01/15 05:07:09;;;;;;;65.70;47.58;;;14.30;72.00;;;;;;4931400;28;95032;-58
2023/01/15 05:09:35;;;;;;;65.93;47.78;;;14.30;72.10;;;;;;4924657;28;94996;-58
2023/01/15 05:12:01;;;;;;;66.32;47.83;;;14.30;72.00;;;;;;4929317;28;94763;-54
2023/01/15 05:14:27;;;;;;;65.30;48.03;;;14.20;72.00;;;;;;4924809;28;95965;-57
2023/01/15 05:16:52;;;;;;;64.70;47.65;;;14.30;72.10;;;;;;4934717;28;96248;-58
2023/01/15 05:19:18;;;;;;;65.30;47.35;;;14.30;71.90;;;;;;4923934;28;103474;-56
2023/01/15 05:21:44;;;;;;;65.03;47.65;;;14.20;71.90;;;;;;4919928;28;96268;-57
2023/01/15 05:24:14;;;;;;;65.35;47.63;;;14.20;72.00;;;;;;4921831;28;97071;-52
2023/01/15 05:26:40;;;;;;;64.57;47.42;;;14.20;71.70;;;;;;4923140;28;97195;-56
2023/01/15 05:29:06;;;;;;;64.78;47.53;;;14.20;72.00;;;;;;4920668;28;97829;-57
2023/01/15 05:31:34;;;;;;;65.20;47.95;;;14.20;72.00;;;;;;4915147;28;95001;-57
2023/01/15 05:34:01;;;;;;;65.03;47.60;;;14.20;72.00;;;;;;4927415;28;95032;-57
2023/01/15 05:36:29;;;;;;;64.68;47.75;;;14.20;71.90;;;;;;4928025;28;100942;-58
2023/01/15 05:39:00;;;;;;;65.50;47.65;;;14.20;72.00;;;;;;4927740;28;94787;-57
2023/01/15 05:44:12;;;;;;;64.63;47.60;;;14.20;72.00;;;;;;4928020;28;95772;-53
2023/01/15 05:46:39;;;;;;;64.72;47.53;;;14.20;72.00;;;;;;4928062;28;95128;-57
2023/01/15 05:49:08;;;;;;;65.55;47.58;;;14.20;72.10;;;;;;4923126;28;95967;-58
2023/01/15 05:51:35;;;;;;;65.78;47.60;;;14.20;72.00;;;;;;4916191;28;99575;-57
2023/01/15 05:54:01;;;;;;;65.50;47.72;;;14.20;72.20;;;;;;4916806;28;96095;-57
2023/01/15 05:56:27;;;;;;;64.57;47.63;;;14.20;72.00;;;;;;4925544;28;96191;-58
2023/01/15 05:58:53;;;;;;;64.80;47.47;;;14.20;72.00;;;;;;4922680;28;97045;-58
2023/01/15 06:01:19;;;;;;;66.15;47.75;;;14.20;72.10;;;;;;4921094;28;96739;-56
2023/01/15 06:03:47;;;;;;;63.70;47.45;;;14.20;72.10;;;;;;4926082;28;100613;-59
2023/01/15 06:06:15;;;;;;;63.80;47.38;;;14.10;71.90;;;;;;4912781;28;95284;-58
2023/01/15 06:08:41;;;;;;;65.20;47.53;;;14.20;72.00;;;;;;4915493;28;99381;-58
2023/01/15 06:11:07;;;;;;;64.95;47.75;;;14.10;72.00;;;;;;4922375;28;96417;-59
2023/01/15 06:13:33;;;;;;;65.13;47.63;;;14.10;72.00;;;;;;4931178;28;95579;-58
2023/01/15 06:15:59;;;;;;;64.60;47.35;;;14.10;72.00;;;;;;4919930;28;95990;-58
2023/01/15 06:18:25;;;;;;;67.30;47.75;;;14.10;72.10;;;;;;4916736;28;96461;-57
2023/01/15 06:20:51;;;;;;;64.20;47.25;;;14.10;71.90;;;;;;4919419;28;95481;-58
2023/01/15 06:23:17;;;;;;;64.20;47.22;;;14.10;72.00;;;;;;4928524;28;95230;-57
2023/01/15 06:25:43;;;;;;;64.07;47.53;;;14.10;72.00;;;;;;4920448;28;95319;-56
2023/01/15 06:28:10;;;;;;;63.97;47.38;;;14.10;72.00;;;;;;4916352;28;96909;-58
2023/01/15 06:30:37;;;;;;;63.47;47.20;;;14.10;72.00;;;;;;4917885;28;95792;-58
2023/01/15 06:33:04;;;;;;;65.57;47.78;;;14.10;71.90;;;;;;4925763;28;97561;-58
2023/01/15 06:35:29;;;;;;;64.65;47.53;;;14.10;72.00;;;;;;4916963;28;95215;-56
2023/01/15 06:37:55;;;;;;;64.65;47.30;;;14.10;72.10;;;;;;4926329;28;95682;-58
2023/01/15 06:40:22;;;;;;;64.53;47.75;;;14.10;72.90;;;;;;4930540;28;96256;-57
2023/01/15 06:48:22;;;;;;;64.65;47.25;;;14.10;72.10;;;;;;4917971;28;95251;-58
2023/01/15 06:50:48;;;;;;;63.90;47.22;;;14.10;72.10;;;;;;4911477;28;97787;-57
2023/01/15 06:53:13;;;;;;;64.30;47.55;;;14.10;72.00;;;;;;4924331;28;95430;-57
2023/01/15 06:55:39;;;;;;;65.65;47.85;;;14.10;72.00;;;;;;4922662;28;95597;-58
2023/01/15 06:58:05;;;;;;;64.13;47.53;;;14.10;72.10;;;;;;4930774;28;94992;-58
2023/01/15 07:00:30;;;;;;;65.20;47.65;;;14.00;72.10;;;;;;4919780;28;96430;-57
2023/01/15 07:02:59;;;;;;;64.30;47.33;;;14.00;72.00;;;;;;4913160;28;96046;-54
2023/01/15 07:05:25;;;;;;;65.32;47.45;;;14.00;72.00;;;;;;4924743;28;97343;-56
2023/01/15 07:07:51;;;;;;;65.47;47.45;;;14.00;72.10;;;;;;4926169;28;94869;-57
2023/01/15 07:10:16;;;;;;;65.88;47.53;;;14.00;72.00;;;;;;4932209;28;95198;-58
2023/01/15 07:12:42;;;;;;;65.30;47.72;;;14.00;72.00;;;;;;4927657;28;96794;-52
2023/01/15 07:15:08;;;;;;;64.35;47.50;;;14.00;72.20;;;;;;4922195;28;95389;-57
2023/01/15 07:17:34;;;;;;;65.10;47.58;;;14.00;72.10;;;;;;4917270;28;97381;-57
2023/01/15 07:19:59;;;;;;;65.28;47.35;;;14.00;72.20;;;;;;4924596;28;95625;-54
2023/01/15 07:22:25;;;;;;;65.45;47.65;;;14.00;72.20;;;;;;4925939;28;94343;-59
2023/01/15 07:24:51;;;;;;;64.60;47.40;;;14.00;72.10;;;;;;4921575;28;95647;-58
2023/01/15 07:27:17;;;;;;;64.38;47.45;;;14.00;72.10;;;;;;4912821;28;95109;-58
2023/01/15 07:29:43;;;;;;;65.22;47.70;;;14.00;72.00;;;;;;4931236;28;96649;-57
2023/01/15 07:32:09;;;;;;;65.03;47.35;;;14.00;71.80;;;;;;4923734;28;95172;-58
2023/01/15 07:34:35;;;;;;;66.05;47.47;;;14.00;72.00;;;;;;4928356;28;95775;-58
2023/01/15 07:37:01;;;;;;;63.80;47.33;;;14.00;71.90;;;;;;4933306;28;95379;-58
2023/01/15 07:39:27;;;;;;;64.75;47.45;;;13.90;72.10;;;;;;4929109;28;95736;-54
2023/01/15 07:50:18;;;;;;;64.28;47.60;;;13.90;72.20;;;;;;4926760;28;94698;-58
2023/01/15 07:52:44;;;;;;;64.03;47.45;;;14.00;71.90;;;;;;4926565;28;96304;-57
2023/01/15 07:55:12;;;;;;;65.20;47.33;;;13.90;72.10;;;;;;4930376;28;97822;-58
2023/01/15 07:57:38;;;;;;;63.83;47.13;;;13.90;72.00;;;;;;4930102;28;95209;-58
2023/01/15 08:00:06;;;;;;;65.43;47.50;;;13.90;72.10;;;;;;4921048;28;95298;-59
2023/01/15 08:02:32;;;;;;;65.35;47.15;;;14.00;72.10;;;;;;4920532;28;98221;-57
2023/01/15 08:04:57;;;;;;;65.95;47.55;;;14.00;72.10;;;;;;4944778;28;95206;-57
2023/01/15 08:07:23;;;;;;;64.43;47.33;;;13.90;72.10;;;;;;4932717;28;100136;-57
2023/01/15 08:09:49;;;;;;;64.68;47.45;;;14.00;72.20;;;;;;4924854;28;95153;-58
2023/01/15 08:15:15;;;;;;;63.58;47.42;;;13.90;72.90;;;;;;4931121;28;97686;-56
2023/01/15 08:17:46;;;;;;;65.47;47.72;;;13.90;72.20;;;;;;4933335;28;94745;-58
2023/01/15 08:20:24;;;;;;;64.13;47.20;;;13.90;72.20;;;;;;4923077;28;96130;-54
2023/01/15 08:22:49;;;;;;;63.28;47.35;;;13.90;72.30;;;;;;4923458;28;96663;-56
2023/01/15 08:25:17;;;;;;;64.20;47.47;;;13.90;72.20;;;;;;4926436;28;96289;-58
2023/01/15 08:27:43;;;;;;;64.80;47.90;;;13.90;72.00;;;;;;4931301;28;95653;-58
2023/01/15 08:30:27;;;;;;;64.90;47.67;;;13.90;72.00;;;;;;4922973;28;95649;-58
2023/01/15 08:32:59;;;;;;;64.97;47.28;;;13.90;72.10;;;;;;4932401;28;97318;-59
2023/01/15 08:35:24;;;;;;;63.28;47.25;;;13.90;72.00;;;;;;4927058;28;94960;-57
2023/01/15 08:37:50;;;;;;;64.90;47.53;;;13.80;72.10;;;;;;4922984;28;94270;-56
2023/01/15 08:40:16;;;;;;;65.40;47.60;;;13.90;71.80;;;;;;4925502;28;95309;-58
2023/01/15 08:42:42;;;;;;;66.95;47.65;;;13.90;72.10;;;;;;4919721;28;94783;-57
2023/01/15 08:45:08;;;;;;;63.95;47.53;;;13.80;71.70;;;;;;4918810;28;96363;-58
2023/01/15 08:47:36;;;;;;;65.65;47.63;;;13.80;71.90;;;;;;4927688;28;98463;-57
2023/01/15 08:50:01;;;;;;;65.72;47.45;;;13.80;71.90;;;;;;4919659;28;97076;-58
2023/01/15 08:52:27;;;;;;;64.50;47.70;;;13.90;72.00;;;;;;4928522;28;96578;-58
2023/01/15 08:54:52;;;;;;;64.13;47.50;;;13.80;72.00;;;;;;4918871;28;96791;-58
2023/01/15 08:57:18;;;;;;;64.18;47.33;;;13.80;71.70;;;;;;4926624;28;97141;-58
2023/01/15 08:59:45;;;;;;;65.40;47.38;;;13.80;71.50;;;;;;4923880;28;96574;-54
2023/01/15 09:02:13;;;;;;;64.13;47.38;;;13.80;71.80;;;;;;4932888;28;94463;-57
2023/01/15 09:04:39;;;;;;;63.65;47.35;;;13.80;71.50;;;;;;4923992;28;94798;-55
2023/01/15 09:07:05;;;;;;;63.92;47.40;;;13.80;71.60;;;;;;4924370;28;95744;-58
2023/01/15 09:09:32;;;;;;;63.83;47.20;;;13.80;71.50;;;;;;4923805;28;99593;-57
2023/01/15 09:11:57;;;;;;;63.65;47.33;;;13.80;71.60;;;;;;4925317;28;95748;-54
2023/01/15 09:14:23;;;;;;;63.60;47.17;;;13.80;71.70;;;;;;4918508;28;96144;-58
2023/01/15 09:16:49;;;;;;;65.53;47.75;;;13.80;71.80;;;;;;4924368;28;96213;-57
2023/01/15 09:19:14;;;;;;;64.47;47.20;;;13.80;71.60;;;;;;4936134;28;95469;-58
2023/01/15 09:21:40;;;;;;;64.70;47.40;;;13.80;71.50;;;;;;4926405;28;95308;-56
2023/01/15 09:24:06;;;;;;;64.38;47.50;;;13.80;71.60;;;;;;4928269;28;95272;-59
2023/01/15 09:26:35;;;;;;;63.25;47.30;;;13.80;71.70;;;;;;4924793;28;94354;-57
2023/01/15 09:29:01;;;;;;;65.22;47.53;;;13.80;71.80;;;;;;4928033;28;95463;-57
2023/01/15 09:31:27;;;;;;;64.00;47.35;;;13.80;71.50;;;;;;4925295;28;95691;-53
2023/01/15 09:33:53;;;;;;;64.25;47.42;;;13.80;71.90;;;;;;4925327;28;96377;-56
2023/01/15 09:36:27;;;;;;;64.10;47.47;;;13.80;71.60;;;;;;4919949;28;96537;-57
2023/01/15 09:38:54;;;;;;;64.68;47.45;;;13.80;71.80;;;;;;4923374;28;95607;-59
2023/01/15 09:44:36;;;;;;;65.28;47.58;;;13.70;71.90;;;;;;4920895;28;95482;-58
2023/01/15 09:47:20;;;;;;;67.38;47.85;;;13.80;72.20;;;;;;4926778;28;95902;-50
2023/01/15 09:50:04;;;;;;;65.80;47.53;;;13.80;71.90;;;;;;4919780;28;101143;-57
2023/01/15 09:52:41;;;;;;;65.90;47.65;;;13.80;72.20;;;;;;4922220;28;94923;-55
2023/01/15 09:55:34;;;;;;;65.00;47.38;;;13.80;72.10;;;;;;4935029;28;96348;-53
2023/01/15 09:58:03;;;;;;;66.70;47.67;;;13.80;72.40;;;;;;4922056;28;99123;-57
2023/01/15 10:00:36;;;;;;;64.97;47.45;;;13.80;72.50;;;;;;4922166;28;96652;-56
2023/01/15 10:03:20;;;;;;;65.95;48.03;;;13.80;72.40;;;;;;4909354;28;95607;-57
2023/01/15 10:06:02;;;;;;;66.03;47.65;;;13.80;72.80;;;;;;4923824;28;98857;-57
2023/01/15 10:08:33;;;;;;;67.03;47.75;;;13.90;72.80;;;;;;4917646;28;97010;-54
2023/01/15 10:11:03;;;;;;;66.50;47.90;;;13.80;72.40;;;;;;4916856;28;96250;-52
2023/01/15 10:13:42;;;;;;;68.10;47.65;;;13.90;73.30;;;;;;4925175;28;96452;-50
2023/01/15 10:16:10;;;;;;;66.28;47.83;;;14.00;73.30;;;;;;4920747;28;100360;-57
2023/01/15 10:18:36;;;;;;;66.80;48.10;;;14.10;73.10;;;;;;4924357;28;94867;-58
2023/01/15 10:21:20;;;;;;;67.40;48.08;;;14.10;73.20;;;;;;4921285;28;96245;-51
2023/01/15 10:24:13;;;;;;;68.90;47.83;;;14.20;73.70;;;;;;4931051;28;95250;-58
2023/01/15 10:26:58;;;;;;;66.18;47.75;;;14.20;73.80;;;;;;4918350;28;97323;-57
2023/01/15 10:29:44;;;;;;;68.10;48.08;;;14.20;73.60;;;;;;4911284;28;95655;-61
2023/01/15 10:32:12;;;;;;;66.82;48.20;;;14.20;73.50;;;;;;4920708;28;95487;-54
2023/01/15 10:35:02;;;;;;;67.18;47.88;;;14.10;73.70;;;;;;4913957;28;95353;-64
2023/01/15 10:37:45;;;;;;;71.53;48.05;;;14.10;74.00;;;;;;4917169;28;96115;-65
2023/01/15 10:40:41;;;;;;;66.25;47.97;;;14.10;74.20;;;;;;4924092;28;95673;-65
2023/01/15 10:43:17;;;;;;;66.72;47.95;;;14.10;74.10;;;;;;4925879;28;94969;-66
2023/01/15 10:46:09;;;;;;;66.60;48.25;;;14.20;74.60;;;;;;4916183;28;98032;-62
2023/01/15 10:48:41;;;;;;;68.18;48.22;;;14.20;74.60;;;;;;4918379;28;95504;-70
2023/01/15 10:51:40;;;;;;;68.40;48.47;;;14.20;74.60;;;;;;4914985;28;94767;-59
2023/01/15 10:54:28;;;;;;;68.40;48.10;;;14.20;74.10;;;;;;4922545;28;99009;-57
2023/01/15 10:57:00;;;;;;;66.57;48.20;;;14.20;74.40;;;;;;4924959;28;95580;-64
2023/01/15 10:59:46;;;;;;;65.88;48.08;;;14.30;74.30;;;;;;4915287;28;95343;-61
2023/01/15 11:02:24;;;;;;;68.13;48.33;;;14.30;74.60;;;;;;4922695;28;95115;-57
2023/01/15 11:04:50;;;;;;;67.35;48.40;;;14.30;74.10;;;;;;4924537;28;96399;-58
2023/01/15 11:07:16;;;;;;;68.28;48.55;;;14.30;74.00;;;;;;4913083;28;95507;-54
2023/01/15 11:09:43;;;;;;;66.40;48.60;;;14.30;73.90;;;;;;4915056;28;96163;-58
2023/01/15 11:20:34;;;;;;;67.20;48.72;;;14.50;74.20;;;;;;4921908;28;97188;-62
2023/01/15 11:23:11;;;;;;;68.97;49.03;;;14.50;74.00;;;;;;4921224;28;100767;-51
2023/01/15 11:25:43;;;;;;;65.80;48.40;;;14.50;73.70;;;;;;4924875;28;96435;-61
2023/01/15 11:28:14;;;;;;;67.82;48.60;;;14.40;73.60;;;;;;4914423;28;96365;-62
2023/01/15 11:30:40;;;;;;;69.37;50.63;;;14.40;73.70;;;;;;4910463;28;95747;-62
2023/01/15 11:33:24;;;;;;;72.95;51.47;;;14.30;73.10;;;;;;4917840;28;98412;-62
2023/01/15 11:35:56;;;;;;;73.10;53.28;;;14.30;73.30;;;;;;4924893;28;96865;-62
2023/01/15 11:38:23;;;;;;;76.88;54.13;;;14.30;73.20;;;;;;4928737;28;95694;-58
2023/01/15 11:40:58;;;;;;;75.88;53.83;;;14.40;73.10;;;;;;4921620;28;95288;-62
2023/01/15 11:52:16;;;;;;;76.90;55.25;;;14.30;73.00;;;;;;4923929;28;95514;-60
2023/01/15 11:54:46;;;;;;;73.47;53.38;;;14.30;72.80;;;;;;4909124;28;102735;-58
2023/01/15 11:57:22;;;;;;;76.90;54.05;;;14.30;72.50;;;;;;4914189;28;98349;-61
2023/01/15 11:59:48;;;;;;;74.32;53.58;;;14.30;72.80;;;;;;4912995;28;95260;-62
2023/01/15 12:02:48;;;;;;;73.78;53.83;;;14.30;72.30;;;;;;4922121;28;95664;-61
2023/01/15 12:05:20;;;;;;;80.28;55.17;;;14.30;72.70;;;;;;4912460;28;94001;-61
2023/01/15 12:07:48;;;;;;;75.38;53.35;;;14.30;72.70;;;;;;4922552;28;95507;-61
2023/01/15 12:10:20;;;;;;;75.05;53.45;;;14.30;72.70;;;;;;4916862;28;96118;-59
2023/01/15 12:13:09;;;;;;;77.75;53.70;;;14.30;72.50;;;;;;4918872;28;97151;-62
2023/01/15 12:15:55;;;;;;;74.10;52.88;;;14.40;72.50;;;;;;4914601;28;95243;-63
2023/01/15 12:18:28;;;;;;;73.03;53.40;;;14.30;72.20;;;;;;4918322;28;95876;-51
2023/01/15 12:21:15;;;;;;;74.03;53.42;;;14.30;72.50;;;;;;4925679;28;95917;-62
2023/01/15 12:23:46;;;;;;;74.00;53.65;;;14.30;72.50;;;;;;4922391;28;94756;-60
2023/01/15 12:26:16;;;;;;;73.20;52.70;;;14.30;72.90;;;;;;4917140;28;95794;-60
2023/01/15 12:28:58;;;;;;;76.47;54.05;;;14.30;72.70;;;;;;4909921;28;97662;-61
2023/01/15 12:31:32;;;;;;;74.45;52.88;;;14.30;72.70;;;;;;4916985;28;94531;-62
2023/01/15 12:34:22;;;;;;;73.75;53.38;;;14.30;72.70;;;;;;4924440;28;95648;-64
2023/01/15 12:36:55;;;;;;;76.40;52.83;;;14.30;72.60;;;;;;4922828;28;95182;-68
2023/01/15 12:39:36;;;;;;;73.47;53.20;;;14.30;73.40;;;;;;4927845;28;97469;-61
2023/01/15 12:45:06;;;;;;;73.55;51.95;;;14.30;72.90;;;;;;4923299;28;95671;-61
2023/01/15 12:47:38;;;;;;;72.32;51.92;;;14.30;72.80;;;;;;4929709;28;96740;-62
2023/01/15 12:50:23;;;;;;;73.90;51.63;;;14.20;73.20;;;;;;4916879;28;100061;-55
2023/01/15 12:53:12;;;;;;;74.88;51.78;;;14.20;73.20;;;;;;4913840;28;95197;-63
2023/01/15 12:55:44;;;;;;;71.82;51.50;;;14.20;72.30;;;;;;4913355;28;99996;-61
2023/01/15 12:58:45;;;;;;;72.70;51.60;;;14.20;71.80;;;;;;4915614;28;95841;-58
2023/01/15 13:01:33;;;;;;;70.20;50.83;;;14.10;71.70;;;;;;4913624;28;95188;-57
2023/01/15 13:04:17;;;;;;;70.55;50.83;;;14.10;71.40;;;;;;4917590;28;95298;-58
2023/01/15 13:06:50;;;;;;;69.90;50.65;;;14.10;71.00;;;;;;4920726;28;97069;-62
2023/01/15 13:09:34;;;;;;;70.80;50.65;;;14.10;71.10;;;;;;4922376;28;95946;-61
2023/01/15 13:12:00;;;;;;;67.93;50.28;;;14.10;70.80;;;;;;4922783;28;95854;-58
2023/01/15 13:14:25;;;;;;;68.18;50.05;;;14.10;70.90;;;;;;4921033;28;96338;-61
2023/01/15 13:17:01;;;;;;;68.82;50.22;;;14.10;70.70;;;;;;4929153;28;95315;-61
2023/01/15 13:20:12;;;;;;;70.82;50.15;;;14.10;70.60;;;;;;4915396;28;97729;-61
2023/01/15 13:22:55;;;;;;;69.53;50.17;;;14.10;70.40;;;;;;4907169;28;97689;-61
2023/01/15 13:25:37;;;;;;;69.55;49.60;;;14.10;70.40;;;;;;4916265;28;97434;-61
2023/01/15 13:28:27;;;;;;;68.28;49.83;;;14.10;70.10;;;;;;4921375;28;95719;-61
2023/01/15 13:31:08;;;;;;;70.60;49.90;;;14.00;70.00;;;;;;4918963;28;94833;-60
2023/01/15 13:33:48;;;;;;;70.95;50.05;;;14.00;69.90;;;;;;4916612;28;98989;-59
2023/01/15 13:36:23;;;;;;;68.95;49.65;;;14.00;69.70;;;;;;4918637;28;96110;-61